Time;durP1;ratioP1;P1;durP2;ratioP2;P2;SDS_P1;SDS_P2;PMS_P1;PMS_P2;Temp;Humidity;BMP_temperature;BMP_pressure;BME280_temperature;BME280_humidity;BME280_pressure;Samples;Min_cycle;Max_cycle;Signal;HPM_P1;HPM_P2
2021/01/19 00:00:07;;;;;;;41.27;14.37;;;3.30;99.90;;;4.08;100.00;101085.75;5035708;28;20622;-75
2021/01/19 00:02:38;;;;;;;39.70;14.03;;;3.30;99.90;;;4.07;100.00;101082.28;5041623;28;20220;-74
2021/01/19 00:05:06;;;;;;;30.90;13.30;;;3.30;99.90;;;4.09;100.00;101085.75;5041707;28;20200;-76
2021/01/19 00:07:33;;;;;;;32.07;13.60;;;3.30;99.90;;;4.09;100.00;101080.56;5039438;28;20197;-75
2021/01/19 00:10:00;;;;;;;40.97;13.97;;;3.30;99.90;;;4.09;100.00;101082.28;5037045;28;20830;-76
2021/01/19 00:12:26;;;;;;;33.63;12.17;;;3.30;99.90;;;4.07;100.00;101084.88;5039032;28;20221;-77
2021/01/19 00:14:53;;;;;;;34.87;13.27;;;3.30;99.90;;;4.09;100.00;101083.16;5041034;28;20200;-76
2021/01/19 00:17:20;;;;;;;33.43;13.17;;;3.30;99.90;;;4.10;100.00;101082.31;5039543;28;20682;-75
2021/01/19 00:19:46;;;;;;;33.87;12.53;;;3.30;99.90;;;4.09;100.00;101075.38;5042233;28;20204;-76
2021/01/19 00:22:13;;;;;;;34.87;13.83;;;3.30;99.90;;;4.10;100.00;101074.53;5041037;28;20189;-75
2021/01/19 00:24:39;;;;;;;33.97;13.32;;;3.40;99.90;;;4.11;100.00;101068.47;5041863;28;20800;-75
2021/01/19 00:27:06;;;;;;;36.17;14.57;;;3.40;99.90;;;4.11;100.00;101068.47;5031147;28;20190;-74
2021/01/19 00:29:32;;;;;;;38.28;14.00;;;3.40;99.90;;;4.13;100.00;101066.75;5051911;28;20633;-74
2021/01/19 00:31:58;;;;;;;33.87;13.97;;;3.40;99.90;;;4.14;100.00;101068.44;5045537;28;20733;-75
2021/01/19 00:34:25;;;;;;;38.35;13.30;;;3.40;99.90;;;4.14;100.00;101068.44;5041806;28;20213;-77
2021/01/19 00:36:51;;;;;;;35.03;13.73;;;3.40;99.90;;;4.12;100.00;101065.00;5037215;28;20208;-74
2021/01/19 00:39:18;;;;;;;31.80;12.90;;;3.40;99.90;;;4.12;100.00;101066.75;5037200;28;20722;-76
2021/01/19 00:41:44;;;;;;;38.03;13.43;;;3.40;99.90;;;4.09;100.00;101065.03;5039882;28;20580;-76
2021/01/19 00:44:11;;;;;;;36.07;13.53;;;3.40;99.90;;;4.10;100.00;101063.31;5040866;28;20223;-75
2021/01/19 00:46:37;;;;;;;34.80;13.30;;;3.40;99.90;;;4.09;100.00;101064.16;5043497;28;20200;-75
2021/01/19 00:49:04;;;;;;;36.60;13.30;;;3.40;99.90;;;4.09;100.00;101065.03;5036165;28;20661;-76
2021/01/19 00:51:34;;;;;;;39.07;14.03;;;3.40;99.90;;;4.10;100.00;101068.50;5042008;28;20314;-77
2021/01/19 00:54:02;;;;;;;37.57;13.47;;;3.40;99.90;;;4.12;100.00;101079.72;5047628;28;20223;-75
2021/01/19 00:56:39;;;;;;;36.23;13.70;;;3.40;99.90;;;4.13;100.00;101071.94;5049185;28;20192;-76
2021/01/19 00:59:06;;;;;;;36.80;13.45;;;3.40;99.90;;;4.14;100.00;101072.75;5041577;28;20661;-75
2021/01/19 01:01:35;;;;;;;33.43;12.80;;;3.40;99.90;;;4.13;100.00;101068.47;5039980;28;20254;-74
2021/01/19 01:04:02;;;;;;;30.20;12.77;;;3.40;99.90;;;4.13;100.00;101068.47;5041848;28;20216;-74
2021/01/19 01:06:28;;;;;;;33.23;14.10;;;3.40;99.90;;;4.14;100.00;101068.44;5041497;28;20201;-73
2021/01/19 01:08:54;;;;;;;37.00;13.30;;;3.40;99.90;;;4.16;100.00;101063.25;5042785;28;20262;-73
2021/01/19 01:11:20;;;;;;;35.33;14.00;;;3.40;99.90;;;4.17;100.00;101067.59;5050343;28;20235;-74
2021/01/19 01:13:47;;;;;;;35.25;14.02;;;3.40;99.90;;;4.13;100.00;101066.75;5048117;28;20212;-74
2021/01/19 01:16:14;;;;;;;33.20;13.40;;;3.40;99.90;;;4.10;100.00;101066.78;5036941;28;20200;-73
2021/01/19 01:18:41;;;;;;;36.77;14.27;;;3.40;99.90;;;4.10;100.00;101065.91;5041678;28;20193;-74
2021/01/19 01:21:11;;;;;;;31.67;12.20;;;3.30;99.90;;;4.10;100.00;101061.59;5043228;28;20197;-74
2021/01/19 01:23:37;;;;;;;38.00;13.60;;;3.40;99.90;;;4.13;100.00;101060.69;5039622;28;20213;-74
2021/01/19 01:26:04;;;;;;;35.00;13.03;;;3.40;99.90;;;4.14;100.00;101055.50;5052150;28;20234;-73
2021/01/19 01:28:30;;;;;;;30.83;13.57;;;3.40;99.90;;;4.15;100.00;101049.47;5050721;28;20196;-74
2021/01/19 01:30:57;;;;;;;34.27;12.50;;;3.40;99.90;;;4.16;100.00;101056.38;5047856;28;20614;-74
2021/01/19 01:33:23;;;;;;;32.22;13.18;;;3.40;99.90;;;4.15;100.00;101044.31;5051673;28;20266;-74
2021/01/19 01:35:50;;;;;;;33.37;12.90;;;3.40;99.90;;;4.14;100.00;101047.75;5048268;28;20196;-74
2021/01/19 01:38:16;;;;;;;35.10;13.82;;;3.40;99.90;;;4.17;100.00;101047.72;5048320;28;20276;-74
2021/01/19 01:40:43;;;;;;;32.93;12.60;;;3.40;99.90;;;4.15;100.00;101054.66;5047741;28;20665;-74
2021/01/19 01:43:15;;;;;;;34.77;12.83;;;3.40;99.90;;;4.14;100.00;101050.34;5051146;28;20697;-74
2021/01/19 01:45:42;;;;;;;37.30;13.77;;;3.40;99.90;;;4.13;100.00;101051.22;5048072;28;20685;-74
2021/01/19 01:48:10;;;;;;;32.93;13.23;;;3.40;99.90;;;4.13;100.00;101050.34;5043799;28;20204;-74
2021/01/19 01:50:37;;;;;;;36.63;13.40;;;3.40;99.90;;;4.13;100.00;101042.56;5049685;28;20197;-74
2021/01/19 01:53:05;;;;;;;32.47;13.10;;;3.40;99.90;;;4.15;100.00;101046.03;5050141;28;20213;-73
2021/01/19 01:55:34;;;;;;;35.50;13.33;;;3.40;99.90;;;4.15;100.00;101039.13;5044681;28;20190;-74
2021/01/19 01:58:00;;;;;;;36.67;13.00;;;3.40;99.90;;;4.18;100.00;101039.09;5045423;28;20573;-74
2021/01/19 02:00:26;;;;;;;33.40;12.57;;;3.40;99.90;;;4.19;100.00;101035.63;5050048;28;20196;-74
2021/01/19 02:02:55;;;;;;;42.55;14.02;;;3.40;99.90;;;4.21;100.00;101033.91;5048996;28;20220;-74
2021/01/19 02:05:22;;;;;;;33.30;13.50;;;3.40;99.90;;;4.23;100.00;101028.69;5066243;28;21950;-74
2021/01/19 02:08:05;;;;;;;34.70;12.87;;;3.40;99.90;;;4.24;100.00;101023.50;5042484;28;20204;-75
2021/01/19 02:10:48;;;;;;;35.63;12.53;;;3.40;99.90;;;4.24;100.00;101013.16;5045891;28;20207;-73
2021/01/19 02:13:33;;;;;;;33.47;12.97;;;3.40;99.90;;;4.24;100.00;101022.63;5046987;28;20259;-74
2021/01/19 02:16:16;;;;;;;33.13;13.30;;;3.40;99.90;;;4.24;100.00;101015.75;5046773;28;20193;-74
2021/01/19 02:18:56;;;;;;;36.47;12.85;;;3.40;99.90;;;4.24;100.00;101018.31;5047397;28;20219;-74
2021/01/19 02:22:04;;;;;;;33.28;12.35;;;3.40;99.90;;;4.26;100.00;101015.72;5050436;28;20808;-72
2021/01/19 02:24:39;;;;;;;33.10;11.93;;;3.40;99.90;;;4.24;100.00;101013.16;5047220;28;20228;-74
2021/01/19 02:27:46;;;;;;;33.63;11.97;;;3.40;99.90;;;4.24;100.00;101018.31;5050241;28;20192;-74
2021/01/19 02:30:45;;;;;;;33.43;12.17;;;3.50;99.90;;;4.26;100.00;101021.78;5044552;28;20549;-74
2021/01/19 02:33:25;;;;;;;33.22;12.50;;;3.40;99.90;;;4.25;100.00;101022.66;5043480;28;20286;-73
2021/01/19 02:36:01;;;;;;;32.57;11.67;;;3.40;99.90;;;4.24;100.00;101023.50;5051972;28;20653;-74
2021/01/19 02:38:43;;;;;;;38.70;12.73;;;3.40;99.90;;;4.24;100.00;101017.47;5045673;28;20197;-74
2021/01/19 02:41:13;;;;;;;29.48;11.48;;;3.40;99.90;;;4.22;100.00;101009.72;5042457;28;20193;-74
2021/01/19 02:43:46;;;;;;;28.77;11.57;;;3.40;99.90;;;4.24;100.00;101013.16;5051141;28;20208;-74
2021/01/19 02:46:13;;;;;;;32.07;11.93;;;3.40;99.90;;;4.26;100.00;101008.81;5050785;28;20601;-74
2021/01/19 02:48:40;;;;;;;34.88;13.05;;;3.40;99.90;;;4.29;100.00;101011.38;5041722;28;20196;-74
2021/01/19 02:51:06;;;;;;;26.33;12.27;;;3.50;99.90;;;4.32;100.00;101013.09;5050967;28;20196;-74
2021/01/19 02:53:32;;;;;;;31.60;12.47;;;3.50;99.90;;;4.33;100.00;101018.28;5050631;28;20268;-73
2021/01/19 02:56:01;;;;;;;30.10;12.23;;;3.50;99.90;;;4.35;100.00;101018.25;5050475;28;20200;-74
2021/01/19 02:58:48;;;;;;;31.98;11.50;;;3.50;99.90;;;4.35;100.00;101016.53;5042078;28;20217;-74
2021/01/19 03:01:22;;;;;;;31.97;12.57;;;3.50;99.90;;;4.35;100.00;101019.13;5039440;28;20189;-74
2021/01/19 03:03:50;;;;;;;29.38;11.27;;;3.50;99.90;;;4.35;100.00;101013.94;5051058;28;20215;-72
2021/01/19 03:06:20;;;;;;;31.67;11.77;;;3.50;99.90;;;4.35;100.00;101006.19;5049567;28;20181;-73
2021/01/19 03:08:50;;;;;;;27.30;10.75;;;3.50;99.90;;;4.35;100.00;101006.19;5045189;28;20212;-74
2021/01/19 03:11:18;;;;;;;29.27;12.07;;;3.50;99.90;;;4.35;100.00;101002.72;5040523;28;20573;-74
2021/01/19 03:13:46;;;;;;;27.67;10.88;;;3.50;99.90;;;4.36;100.00;101000.13;5048283;28;20231;-74
2021/01/19 03:16:15;;;;;;;28.63;11.43;;;3.50;99.90;;;4.38;100.00;101003.56;5044829;28;20262;-74
2021/01/19 03:18:44;;;;;;;30.30;11.77;;;3.60;99.90;;;4.41;100.00;101000.06;5039324;28;20712;-74
2021/01/19 03:21:12;;;;;;;28.50;11.33;;;3.60;99.90;;;4.42;100.00;101002.66;5046360;28;20197;-74
2021/01/19 03:23:39;;;;;;;29.90;11.03;;;3.60;99.90;;;4.42;100.00;101000.06;5050992;28;20209;-74
2021/01/19 03:26:07;;;;;;;25.50;11.13;;;3.60;99.90;;;4.42;100.00;100999.22;5050361;28;20196;-73
2021/01/19 03:28:34;;;;;;;27.67;11.70;;;3.60;99.90;;;4.41;99.86;100995.75;5044896;28;20955;-74
2021/01/19 03:31:01;;;;;;;26.70;10.43;;;3.60;99.90;;;4.43;99.95;100995.75;5051214;28;20197;-74
2021/01/19 03:33:28;;;;;;;28.03;10.90;;;3.60;99.90;;;4.41;99.85;100994.88;5040036;28;20285;-73
2021/01/19 03:35:54;;;;;;;27.13;10.97;;;3.60;99.90;;;4.43;99.97;100994.03;5048096;28;20197;-75
2021/01/19 03:38:21;;;;;;;32.47;11.77;;;3.60;99.90;;;4.46;99.85;100991.41;5047036;28;20204;-74
2021/01/19 03:40:50;;;;;;;26.13;11.13;;;3.60;99.90;;;4.47;99.79;100992.25;5040802;28;20200;-73
2021/01/19 03:43:17;;;;;;;27.53;10.53;;;3.60;99.90;;;4.45;99.53;100983.63;5039112;28;20212;-74
2021/01/19 03:45:43;;;;;;;33.17;10.67;;;3.60;99.90;;;4.43;99.67;100982.78;5048602;28;20185;-75
2021/01/19 03:48:10;;;;;;;28.02;9.93;;;3.60;99.90;;;4.43;99.75;100994.03;5042545;28;20665;-74
2021/01/19 03:50:36;;;;;;;25.45;10.57;;;3.60;99.90;;;4.41;99.68;100984.53;5047363;28;20196;-74
2021/01/19 03:53:03;;;;;;;25.90;10.20;;;3.60;99.90;;;4.42;99.27;100986.25;5049880;28;20228;-73
2021/01/19 03:55:30;;;;;;;23.55;9.65;;;3.60;99.90;;;4.42;99.72;100984.50;5046039;28;20204;-74
2021/01/19 03:57:57;;;;;;;24.90;9.87;;;3.60;99.90;;;4.41;99.52;100982.81;5044306;28;20193;-73
2021/01/19 04:00:24;;;;;;;22.88;9.98;;;3.60;99.90;;;4.42;99.48;100986.25;5043278;28;20193;-73
2021/01/19 04:02:50;;;;;;;25.08;11.02;;;3.60;99.90;;;4.41;99.66;100984.53;5043938;28;20212;-74
2021/01/19 04:05:17;;;;;;;26.13;10.75;;;3.60;99.90;;;4.41;99.44;100975.03;5048165;28;20189;-74
2021/01/19 04:07:44;;;;;;;22.35;10.10;;;3.60;99.90;;;4.41;99.57;100972.44;5040405;28;20220;-74
2021/01/19 04:10:14;;;;;;;26.02;10.40;;;3.60;99.90;;;4.42;99.22;100970.72;5047111;28;20681;-73
2021/01/19 04:12:42;;;;;;;23.52;9.85;;;3.60;99.90;;;4.41;99.31;100964.69;5043248;28;20742;-74
2021/01/19 04:15:10;;;;;;;24.43;9.20;;;3.60;99.90;;;4.41;99.16;100963.81;5042392;28;20195;-74
2021/01/19 04:17:37;;;;;;;23.50;9.80;;;3.70;99.90;;;4.40;99.17;100962.97;5052884;28;20193;-74
2021/01/19 04:20:05;;;;;;;30.35;9.93;;;3.70;99.90;;;4.43;99.23;100962.94;5054496;28;20677;-72
2021/01/19 04:22:32;;;;;;;20.63;9.47;;;3.70;99.90;;;4.44;99.36;100956.88;5040178;28;20193;-74
2021/01/19 04:24:58;;;;;;;27.70;9.88;;;3.70;99.90;;;4.43;98.87;100959.47;5045084;28;20250;-74
2021/01/19 04:27:24;;;;;;;23.83;10.23;;;3.70;99.90;;;4.45;98.95;100962.91;5044362;28;20204;-73
2021/01/19 04:29:51;;;;;;;22.05;9.55;;;3.70;99.90;;;4.46;98.82;100957.72;5045372;28;20190;-74
2021/01/19 04:32:18;;;;;;;25.33;10.30;;;3.70;99.90;;;4.45;98.86;100961.19;5044900;28;20227;-74
2021/01/19 04:34:44;;;;;;;23.47;9.30;;;3.70;99.90;;;4.45;99.03;100963.78;5042484;28;20201;-73
2021/01/19 04:37:11;;;;;;;25.13;9.57;;;3.70;99.90;;;4.45;98.72;100960.34;5046502;28;20257;-73
2021/01/19 04:39:37;;;;;;;23.90;9.80;;;3.70;99.90;;;4.44;98.88;100954.28;5048227;28;20193;-74
2021/01/19 04:42:04;;;;;;;21.52;9.43;;;3.70;99.90;;;4.42;98.58;100948.25;5049639;28;20204;-72
2021/01/19 04:44:31;;;;;;;22.80;8.80;;;3.70;99.90;;;4.44;98.71;100950.81;5037236;28;20701;-74
2021/01/19 04:46:59;;;;;;;20.45;8.50;;;3.70;99.90;;;4.41;98.38;100951.72;5044532;28;20247;-73
2021/01/19 04:49:28;;;;;;;20.92;8.35;;;3.70;99.90;;;4.40;98.63;100947.44;5039175;28;20200;-73
2021/01/19 04:52:00;;;;;;;22.13;8.87;;;3.70;99.90;;;4.37;98.30;100947.44;5057372;28;20232;-73
2021/01/19 04:54:35;;;;;;;21.63;9.00;;;3.70;99.90;;;4.36;98.26;100950.03;5038290;28;20216;-73
2021/01/19 04:57:19;;;;;;;20.83;8.77;;;3.70;99.90;;;4.38;98.49;100948.31;5039791;28;20242;-73
2021/01/19 04:59:53;;;;;;;19.70;8.60;;;3.70;99.90;;;4.40;98.49;100946.56;5045309;28;20185;-73
2021/01/19 05:03:00;;;;;;;20.77;8.60;;;3.70;99.90;;;4.46;98.44;100952.53;5047743;28;20279;-72
2021/01/19 05:05:59;;;;;;;20.48;7.95;;;3.80;99.90;;;4.50;98.47;100951.66;5016215;28;20565;-73
2021/01/19 05:09:06;;;;;;;21.80;9.20;;;3.80;99.90;;;4.49;97.92;100944.75;5047138;28;20216;-72
2021/01/19 05:11:49;;;;;;;20.27;8.52;;;3.80;99.90;;;4.48;97.59;100948.22;5039500;28;20539;-73
2021/01/19 05:14:20;;;;;;;22.50;8.73;;;3.80;99.90;;;4.49;97.73;100941.28;5040815;28;20291;-73
2021/01/19 05:16:49;;;;;;;20.53;9.20;;;3.80;99.90;;;4.49;97.70;100934.38;5045731;28;20185;-73
2021/01/19 05:19:21;;;;;;;20.75;9.10;;;3.80;99.90;;;4.50;97.57;100930.06;5045107;28;20557;-73
2021/01/19 05:21:52;;;;;;;20.17;8.40;;;3.80;99.90;;;4.51;97.16;100922.28;5047398;28;20680;-74
2021/01/19 05:24:19;;;;;;;20.23;8.13;;;3.80;99.90;;;4.50;97.18;100911.94;5039210;28;20216;-74
2021/01/19 05:26:45;;;;;;;23.47;8.27;;;3.80;99.90;;;4.46;96.83;100903.31;5044855;28;20634;-73
2021/01/19 05:29:11;;;;;;;19.83;8.60;;;3.80;99.90;;;4.44;96.40;100902.47;5041197;28;20193;-73
2021/01/19 05:31:37;;;;;;;19.33;8.25;;;3.80;99.90;;;4.41;96.63;100886.09;5032477;28;20194;-74
2021/01/19 05:34:11;;;;;;;20.88;8.57;;;3.70;99.90;;;4.38;96.33;100888.72;5043199;28;20208;-73
2021/01/19 05:36:43;;;;;;;18.95;8.25;;;3.70;99.90;;;4.35;96.38;100879.28;5047199;28;20246;-75
2021/01/19 05:39:12;;;;;;;21.30;7.70;;;3.70;99.90;;;4.33;96.32;100882.75;5035967;28;20185;-73
2021/01/19 05:41:41;;;;;;;17.67;7.47;;;3.70;99.90;;;4.34;95.98;100884.44;5037068;28;20205;-73
2021/01/19 05:44:15;;;;;;;17.98;7.65;;;3.70;99.90;;;4.34;96.08;100898.25;5044222;28;20224;-73
2021/01/19 05:46:49;;;;;;;17.90;6.65;;;3.70;99.90;;;4.33;96.04;100898.28;5042645;28;20211;-75
2021/01/19 05:49:24;;;;;;;15.47;6.80;;;3.70;99.90;;;4.32;95.72;100892.22;5038657;28;20207;-72
2021/01/19 05:51:59;;;;;;;17.10;6.83;;;3.70;99.90;;;4.32;95.93;100881.88;5042867;28;20776;-75
2021/01/19 05:54:31;;;;;;;18.17;7.18;;;3.70;99.90;;;4.31;95.83;100880.16;5044077;28;20694;-74
2021/01/19 05:57:05;;;;;;;16.60;6.27;;;3.60;99.90;;;4.29;95.56;100881.91;5048151;28;20192;-74
2021/01/19 05:59:34;;;;;;;17.07;6.60;;;3.60;99.90;;;4.28;95.59;100885.38;5043716;28;20212;-74
2021/01/19 06:02:10;;;;;;;14.80;6.63;;;3.60;99.90;;;4.28;95.66;100880.19;5044640;28;20658;-77
2021/01/19 06:04:43;;;;;;;13.67;5.80;;;3.60;99.90;;;4.29;95.42;100876.72;5041926;28;20208;-73
2021/01/19 06:07:13;;;;;;;18.77;6.50;;;3.60;99.90;;;4.28;95.12;100879.34;5044274;28;20193;-74
2021/01/19 06:09:41;;;;;;;15.57;5.90;;;3.60;99.90;;;4.26;95.23;100870.72;5048935;28;20206;-75
2021/01/19 06:12:08;;;;;;;15.40;6.13;;;3.60;99.90;;;4.28;95.34;100862.06;5049420;28;20209;-73
2021/01/19 06:14:36;;;;;;;16.07;5.40;;;3.60;99.90;;;4.31;95.28;100872.41;5046260;28;20219;-73
2021/01/19 06:17:07;;;;;;;17.53;6.27;;;3.70;99.90;;;4.30;95.18;100860.34;5044682;28;20196;-76
2021/01/19 06:19:35;;;;;;;16.10;5.63;;;3.70;99.90;;;4.31;95.22;100854.28;5044357;28;20636;-73
2021/01/19 06:22:08;;;;;;;18.23;6.43;;;3.70;99.90;;;4.35;95.11;100855.97;5060303;28;20680;-74
2021/01/19 06:24:38;;;;;;;14.00;5.90;;;3.70;99.90;;;4.38;95.02;100849.88;5045148;28;20216;-72
2021/01/19 06:27:07;;;;;;;17.20;6.43;;;3.70;99.90;;;4.36;94.91;100842.13;5038086;28;20193;-73
2021/01/19 06:29:33;;;;;;;17.57;5.93;;;3.70;99.90;;;4.36;94.57;100841.25;5053228;28;20524;-74
2021/01/19 06:32:03;;;;;;;14.73;5.97;;;3.70;99.90;;;4.40;94.63;100842.97;5044622;28;20210;-73
2021/01/19 06:34:34;;;;;;;17.42;6.35;;;3.70;99.90;;;4.42;94.53;100836.03;5052077;28;20212;-73
2021/01/19 06:37:01;;;;;;;12.65;5.63;;;3.70;99.90;;;4.40;94.06;100830.00;5046482;28;20184;-73
2021/01/19 06:39:32;;;;;;;16.00;5.80;;;3.70;99.90;;;4.36;94.10;100829.19;5037081;28;20196;-73
2021/01/19 06:42:08;;;;;;;16.23;6.28;;;3.70;99.90;;;4.38;93.69;100827.44;5048321;28;20204;-74
2021/01/19 06:44:45;;;;;;;15.87;6.37;;;3.70;99.90;;;4.37;93.65;100823.13;5065663;28;20705;-74
2021/01/19 06:47:14;;;;;;;20.50;6.47;;;3.70;99.90;;;4.38;93.51;100811.91;5048794;28;20538;-75
2021/01/19 06:49:41;;;;;;;14.90;5.73;;;3.70;99.90;;;4.38;93.55;100816.22;5043812;28;20212;-73
2021/01/19 06:52:11;;;;;;;15.77;5.95;;;3.70;99.90;;;4.35;93.53;100809.34;5049879;28;20507;-73
2021/01/19 06:55:02;;;;;;;16.05;6.00;;;3.70;99.90;;;4.33;93.50;100795.56;5039822;28;20284;-73
2021/01/19 06:57:47;;;;;;;20.07;5.80;;;3.60;99.90;;;4.35;93.33;100790.34;5044189;28;20201;-72
2021/01/19 07:00:20;;;;;;;18.87;7.03;;;3.70;99.90;;;4.35;93.38;100788.63;5044172;28;20212;-74
2021/01/19 07:02:48;;;;;;;17.73;6.10;;;3.70;99.90;;;4.33;93.26;100785.19;5053179;28;20240;-75
2021/01/19 07:05:18;;;;;;;18.20;5.70;;;3.70;99.90;;;4.27;93.00;100777.47;5051587;28;20268;-74
2021/01/19 07:07:47;;;;;;;15.33;5.60;;;3.60;99.90;;;4.24;93.29;100787.00;5051798;28;20201;-74
2021/01/19 07:10:16;;;;;;;14.70;6.33;;;3.60;99.90;;;4.26;93.24;100767.13;5046216;28;20194;-73
2021/01/19 07:13:01;;;;;;;19.37;6.30;;;3.60;99.90;;;4.29;93.08;100762.78;5044423;28;20213;-75
2021/01/19 07:16:03;;;;;;;17.23;6.53;;;3.60;99.90;;;4.28;93.24;100760.22;5048092;28;20279;-75
2021/01/19 07:19:17;;;;;;;14.53;5.77;;;3.60;99.90;;;4.33;93.03;100761.88;5047509;28;20227;-73
2021/01/19 07:22:05;;;;;;;15.70;5.67;;;3.60;99.90;;;4.35;92.83;100762.72;5043659;28;20319;-74
2021/01/19 07:24:42;;;;;;;17.80;5.90;;;3.60;99.90;;;4.32;92.65;100765.34;5046043;28;20784;-75
2021/01/19 07:27:11;;;;;;;15.37;5.97;;;3.60;99.90;;;4.27;92.57;100759.34;5046954;28;20196;-75
2021/01/19 07:29:38;;;;;;;13.83;5.53;;;3.60;99.90;;;4.27;92.46;100758.53;5044840;28;20189;-73
2021/01/19 07:32:10;;;;;;;15.15;5.38;;;3.60;99.90;;;4.28;92.42;100749.88;5046947;28;20224;-74
2021/01/19 07:34:41;;;;;;;14.80;5.80;;;3.60;99.90;;;4.31;92.21;100744.63;5042367;28;20209;-74
2021/01/19 07:37:08;;;;;;;14.00;6.00;;;3.60;99.90;;;4.33;92.35;100748.06;5048556;28;20193;-72
2021/01/19 07:39:37;;;;;;;15.93;6.33;;;3.60;99.90;;;4.35;92.33;100744.59;5051121;28;20197;-73
2021/01/19 07:42:13;;;;;;;16.90;5.80;;;3.60;99.90;;;4.34;91.94;100737.69;5042103;28;20572;-74
2021/01/19 07:44:42;;;;;;;16.23;6.05;;;3.60;99.90;;;4.32;91.71;100731.66;5048213;28;20268;-75
2021/01/19 07:47:15;;;;;;;15.83;5.63;;;3.60;99.90;;;4.31;91.84;100729.97;5049487;28;20200;-73
2021/01/19 07:49:43;;;;;;;17.07;5.93;;;3.60;99.90;;;4.32;91.94;100741.19;5050971;28;20200;-74
2021/01/19 07:52:12;;;;;;;14.17;5.33;;;3.70;99.90;;;4.30;92.06;100737.75;5050381;28;20216;-74
2021/01/19 07:54:39;;;;;;;15.50;6.10;;;3.70;99.90;;;4.31;92.11;100735.16;5062959;28;20572;-73
2021/01/19 07:57:15;;;;;;;15.77;5.63;;;3.70;99.90;;;4.37;92.01;100727.28;5067427;28;20197;-74
2021/01/19 07:59:44;;;;;;;15.77;5.93;;;3.70;99.90;;;4.41;91.81;100722.94;5050130;28;20688;-73
2021/01/19 08:02:22;;;;;;;14.45;5.50;;;3.70;99.90;;;4.42;91.84;100717.72;5044600;28;20200;-74
2021/01/19 08:05:00;;;;;;;15.10;6.17;;;3.80;99.90;;;4.42;91.75;100712.56;5048422;28;20199;-75
2021/01/19 08:07:38;;;;;;;14.85;5.97;;;3.80;99.90;;;4.43;91.74;100709.09;5051375;28;20281;-73
2021/01/19 08:10:18;;;;;;;18.53;6.67;;;3.80;99.90;;;4.48;91.86;100706.44;5050136;28;20188;-74
2021/01/19 08:12:47;;;;;;;17.40;6.40;;;3.80;99.90;;;4.50;91.83;100704.69;5047369;28;20223;-72
2021/01/19 08:15:20;;;;;;;16.98;6.43;;;3.80;99.90;;;4.50;91.79;100709.88;5048938;28;20197;-74
2021/01/19 08:17:51;;;;;;;15.37;5.67;;;3.90;99.90;;;4.53;91.60;100710.69;5052073;28;20187;-74
2021/01/19 08:20:30;;;;;;;15.35;7.25;;;3.90;99.90;;;4.58;91.77;100703.72;5050974;28;20720;-74
2021/01/19 08:23:10;;;;;;;16.17;7.25;;;4.00;99.90;;;4.64;91.72;100703.63;5052026;28;20213;-75
2021/01/19 08:25:37;;;;;;;13.15;5.65;;;4.00;99.90;;;4.64;91.56;100698.44;5046614;28;20287;-73
2021/01/19 08:28:04;;;;;;;21.63;7.70;;;4.00;99.90;;;4.61;91.24;100693.31;5041933;28;20185;-73
2021/01/19 08:30:32;;;;;;;15.80;6.00;;;4.10;99.90;;;4.67;91.44;100688.03;5043812;28;20201;-76
2021/01/19 08:33:00;;;;;;;18.60;6.85;;;4.10;99.90;;;4.69;91.06;100691.47;5037140;28;20275;-76
2021/01/19 08:35:29;;;;;;;15.20;6.65;;;4.10;99.90;;;4.73;91.03;100687.97;5046166;28;20236;-77
2021/01/19 08:37:57;;;;;;;17.85;6.35;;;4.10;99.90;;;4.77;90.98;100678.41;5045776;28;20238;-75
2021/01/19 08:40:26;;;;;;;17.73;6.38;;;4.20;99.90;;;4.76;90.77;100682.72;5054411;28;20246;-74
2021/01/19 08:42:54;;;;;;;14.73;6.20;;;4.20;99.90;;;4.73;90.45;100681.91;5041089;28;20219;-76
2021/01/19 08:45:27;;;;;;;13.27;5.95;;;4.20;99.90;;;4.74;90.38;100673.25;5039886;28;20962;-77
2021/01/19 08:47:57;;;;;;;16.92;7.07;;;4.20;99.90;;;4.77;90.18;100663.69;5042529;28;20678;-76
2021/01/19 08:50:25;;;;;;;14.73;6.47;;;4.20;99.90;;;4.81;90.28;100670.56;5045636;28;20281;-77
2021/01/19 08:52:53;;;;;;;18.40;8.27;;;4.30;99.90;;;4.85;89.95;100658.41;5041520;28;20916;-74
2021/01/19 08:55:22;;;;;;;16.35;6.80;;;4.20;99.90;;;4.86;89.72;100645.41;5035914;28;20194;-75
2021/01/19 08:57:55;;;;;;;18.35;7.95;;;4.30;99.90;;;4.88;89.36;100645.41;5044410;28;20196;-74
2021/01/19 09:00:27;;;;;;;15.60;7.25;;;4.30;99.90;;;4.88;89.13;100646.25;5044582;28;20200;-76
2021/01/19 09:02:56;;;;;;;17.70;6.65;;;4.30;99.90;;;4.88;88.88;100643.66;5043124;28;20823;-77
2021/01/19 09:05:28;;;;;;;17.45;7.28;;;4.30;99.90;;;4.89;88.81;100632.41;5045566;28;20189;-75
2021/01/19 09:07:56;;;;;;;16.67;7.28;;;4.30;99.90;;;4.93;88.97;100634.09;5042467;28;20200;-75
2021/01/19 09:10:26;;;;;;;18.38;7.07;;;4.30;99.90;;;4.96;88.78;100627.97;5037912;28;20674;-75
2021/01/19 09:12:53;;;;;;;18.13;7.15;;;4.40;99.90;;;4.98;88.75;100624.50;5039441;28;20287;-76
2021/01/19 09:15:20;;;;;;;13.68;6.18;;;4.40;99.90;;;4.97;88.68;100620.16;5038336;28;20185;-75
2021/01/19 09:17:57;;;;;;;15.57;6.30;;;4.40;99.90;;;5.00;88.63;100617.56;5044546;28;20194;-76
2021/01/19 09:20:26;;;;;;;21.77;6.88;;;4.40;99.90;;;4.97;88.32;100614.97;5037573;28;20275;-76
2021/01/19 09:22:54;;;;;;;16.45;6.47;;;4.40;99.90;;;4.96;88.38;100599.47;5034484;28;20224;-75
2021/01/19 09:25:23;;;;;;;18.27;6.93;;;4.40;99.90;;;4.96;88.46;100602.06;5043244;28;20216;-74
2021/01/19 09:27:50;;;;;;;17.87;6.70;;;4.30;99.90;;;4.97;88.50;100604.63;5039568;28;20304;-76
2021/01/19 09:30:19;;;;;;;14.30;6.93;;;4.30;99.90;;;4.99;88.45;100596.81;5037841;28;20240;-75
2021/01/19 09:32:46;;;;;;;19.75;6.40;;;4.30;99.90;;;5.00;88.13;100593.34;5034364;28;20232;-74
2021/01/19 09:35:17;;;;;;;21.25;6.22;;;4.30;99.90;;;5.01;88.21;100587.28;5042286;28;20197;-75
2021/01/19 09:37:43;;;;;;;17.55;5.70;;;4.30;99.90;;;5.03;88.44;100583.78;5041042;28;20215;-75
2021/01/19 09:40:11;;;;;;;12.88;6.05;;;4.30;99.90;;;5.04;88.21;100580.31;5039600;28;20207;-75
2021/01/19 09:42:39;;;;;;;12.50;5.10;;;4.30;99.90;;;5.01;88.17;100570.00;5046059;28;20267;-75
2021/01/19 09:45:10;;;;;;;16.05;5.57;;;4.20;99.90;;;4.97;87.93;100577.84;5048529;28;20953;-75
2021/01/19 09:47:42;;;;;;;16.38;5.10;;;4.20;99.90;;;4.95;88.16;100567.53;5055098;28;20197;-74
2021/01/19 09:50:10;;;;;;;16.30;5.30;;;4.20;99.90;;;4.93;88.10;100558.91;5035629;28;20193;-75
2021/01/19 09:52:40;;;;;;;14.38;5.47;;;4.20;99.90;;;4.92;87.76;100553.75;5041746;28;20205;-75
2021/01/19 09:55:11;;;;;;;15.98;4.90;;;4.20;99.90;;;4.96;87.89;100542.44;5039668;28;20557;-75
2021/01/19 09:57:38;;;;;;;16.30;5.22;;;4.20;99.90;;;5.00;87.84;100544.97;5045598;28;20247;-75
2021/01/19 10:00:08;;;;;;;17.63;5.23;;;4.20;99.90;;;4.99;88.02;100535.47;5049636;28;20193;-73
2021/01/19 10:02:39;;;;;;;15.20;5.05;;;4.20;99.90;;;4.98;87.66;100517.34;5040941;28;20200;-74
2021/01/19 10:05:07;;;;;;;12.18;4.47;;;4.20;99.90;;;4.95;87.75;100507.03;5048070;28;20185;-74
2021/01/19 10:07:34;;;;;;;14.77;5.38;;;4.20;99.90;;;4.94;87.97;100506.16;5045968;28;20197;-75
2021/01/19 10:10:13;;;;;;;14.50;4.88;;;4.20;99.90;;;4.96;87.75;100500.97;5045957;28;20253;-74
2021/01/19 10:12:42;;;;;;;14.27;5.50;;;4.20;99.90;;;4.97;88.18;100495.75;5044876;28;20220;-73
2021/01/19 10:15:10;;;;;;;12.07;4.70;;;4.20;99.90;;;4.98;88.06;100481.06;5042038;28;20205;-77
2021/01/19 10:17:37;;;;;;;14.43;4.72;;;4.20;99.90;;;4.96;87.90;100470.72;5046763;28;20188;-74
2021/01/19 10:20:13;;;;;;;12.68;4.60;;;4.20;99.90;;;4.96;88.07;100468.13;5046958;28;20197;-76
2021/01/19 10:22:42;;;;;;;10.43;4.57;;;4.20;99.90;;;5.00;87.99;100456.81;5061215;28;20220;-74
2021/01/19 10:25:12;;;;;;;10.15;4.40;;;4.20;99.90;;;5.01;88.00;100444.69;5040923;28;20192;-74
2021/01/19 10:27:42;;;;;;;12.65;4.80;;;4.20;99.90;;;4.99;87.54;100436.94;5062614;28;20204;-77
2021/01/19 10:30:11;;;;;;;12.40;4.22;;;4.20;99.90;;;5.00;87.77;100423.13;5043265;28;20185;-76